Terminal Aerodrome Forecast
Issued by NWS

Home | Current Version | Previous Version | Text Only | Print | Product List | Glossary On
Versions: 1 2 3 4 5 6 7 8 9 10 11 12 13 14 15 16 17 18 19 20 21 22 23 24 25
000
FTUS43 KGRR 240313 AAA
TAFLAN
TAF AMD
KLAN 240313Z 2403/2424 04007KT P6SM -SHRA OVC070
     FM240500 06009KT P6SM VCSH OVC025
     FM240700 06012KT 4SM -RA HZ OVC009
     FM240900 06014KT 2SM -RA BR OVC005
     FM242100 07010KT 1SM -TSRA BR OVC004CB=

USA.gov is the U.S. government's official web portal to all federal, state and local government web resources and services.